sensor_id;sensor_type;location;lat;lon;timestamp;temperature;humidity
9201;DHT22;4635;48.686;9.008;2023-04-03T05:43:34;2.10;99.90
9201;DHT22;4635;48.686;9.008;2023-04-03T05:46:18;2.30;99.90
9201;DHT22;4635;48.686;9.008;2023-04-03T05:49:03;2.40;99.90
9201;DHT22;4635;48.686;9.008;2023-04-03T05:51:58;2.30;99.90
9201;DHT22;4635;48.686;9.008;2023-04-03T05:54:36;2.30;99.90
9201;DHT22;4635;48.686;9.008;2023-04-03T05:57:40;2.30;99.90
9201;DHT22;4635;48.686;9.008;2023-04-03T06:00:25;2.80;99.90
9201;DHT22;4635;48.686;9.008;2023-04-03T06:03:08;2.50;99.90
9201;DHT22;4635;48.686;9.008;2023-04-03T06:08:43;2.30;99.90
9201;DHT22;4635;48.686;9.008;2023-04-03T06:14:29;2.40;99.90
9201;DHT22;4635;48.686;9.008;2023-04-03T16:43:24;5.30;1.00
9201;DHT22;4635;48.686;9.008;2023-04-03T16:45:54;5.40;1.00
9201;DHT22;4635;48.686;9.008;2023-04-03T16:48:32;5.30;1.00
9201;DHT22;4635;48.686;9.008;2023-04-03T16:51:13;6.50;1.00
9201;DHT22;4635;48.686;9.008;2023-04-03T16:53:59;5.50;1.00
9201;DHT22;4635;48.686;9.008;2023-04-03T16:56:46;5.30;1.00
9201;DHT22;4635;48.686;9.008;2023-04-03T16:59:34;5.20;1.00
9201;DHT22;4635;48.686;9.008;2023-04-03T17:05:16;5.10;1.00
9201;DHT22;4635;48.686;9.008;2023-04-03T17:07:46;4.90;1.00
9201;DHT22;4635;48.686;9.008;2023-04-03T17:10:34;4.80;1.00
9201;DHT22;4635;48.686;9.008;2023-04-03T17:25:10;4.80;1.00
9201;DHT22;4635;48.686;9.008;2023-04-03T17:27:51;4.90;1.00
9201;DHT22;4635;48.686;9.008;2023-04-03T17:30:21;5.00;1.00
9201;DHT22;4635;48.686;9.008;2023-04-03T17:33:04;5.00;1.00
9201;DHT22;4635;48.686;9.008;2023-04-03T17:35:41;4.80;1.00
9201;DHT22;4635;48.686;9.008;2023-04-03T17:38:16;4.70;1.00
9201;DHT22;4635;48.686;9.008;2023-04-03T17:41:07;4.90;1.00
9201;DHT22;4635;48.686;9.008;2023-04-03T17:43:45;4.90;1.00
9201;DHT22;4635;48.686;9.008;2023-04-03T17:46:29;4.70;1.00
9201;DHT22;4635;48.686;9.008;2023-04-03T17:49:22;4.80;1.00
9201;DHT22;4635;48.686;9.008;2023-04-03T17:52:23;4.90;1.00
9201;DHT22;4635;48.686;9.008;2023-04-03T17:55:25;4.90;1.00
9201;DHT22;4635;48.686;9.008;2023-04-03T18:23:48;4.40;1.00
9201;DHT22;4635;48.686;9.008;2023-04-03T18:26:28;4.30;1.00
9201;DHT22;4635;48.686;9.008;2023-04-03T18:29:10;4.40;1.00
9201;DHT22;4635;48.686;9.008;2023-04-03T18:31:54;4.40;1.00
9201;DHT22;4635;48.686;9.008;2023-04-03T18:34:38;4.30;1.00
9201;DHT22;4635;48.686;9.008;2023-04-03T18:40:19;4.30;1.00
9201;DHT22;4635;48.686;9.008;2023-04-03T18:43:01;4.30;1.00
9201;DHT22;4635;48.686;9.008;2023-04-03T18:45:44;4.10;1.00
9201;DHT22;4635;48.686;9.008;2023-04-03T18:48:23;4.40;1.00
9201;DHT22;4635;48.686;9.008;2023-04-03T18:51:06;4.10;1.00
9201;DHT22;4635;48.686;9.008;2023-04-03T18:53:50;4.10;1.00
9201;DHT22;4635;48.686;9.008;2023-04-03T19:16:42;3.90;1.00
9201;DHT22;4635;48.686;9.008;2023-04-03T19:19:16;3.70;1.00
9201;DHT22;4635;48.686;9.008;2023-04-03T19:21:48;3.80;1.00
9201;DHT22;4635;48.686;9.008;2023-04-03T19:24:34;3.80;1.00
9201;DHT22;4635;48.686;9.008;2023-04-03T19:27:16;3.80;1.00
9201;DHT22;4635;48.686;9.008;2023-04-03T19:29:47;3.80;1.00
9201;DHT22;4635;48.686;9.008;2023-04-03T19:32:24;3.80;1.00
9201;DHT22;4635;48.686;9.008;2023-04-03T19:34:56;3.70;1.00
9201;DHT22;4635;48.686;9.008;2023-04-03T19:37:39;3.60;1.00
9201;DHT22;4635;48.686;9.008;2023-04-03T19:40:16;3.60;1.00
9201;DHT22;4635;48.686;9.008;2023-04-03T19:42:46;3.40;1.00
9201;DHT22;4635;48.686;9.008;2023-04-03T19:45:30;3.40;1.00
9201;DHT22;4635;48.686;9.008;2023-04-03T19:48:18;3.20;1.00
9201;DHT22;4635;48.686;9.008;2023-04-03T19:51:00;3.20;1.00
9201;DHT22;4635;48.686;9.008;2023-04-03T19:53:42;3.20;1.00
9201;DHT22;4635;48.686;9.008;2023-04-03T19:56:17;3.20;1.00
9201;DHT22;4635;48.686;9.008;2023-04-03T19:58:54;3.20;1.00
9201;DHT22;4635;48.686;9.008;2023-04-03T20:01:37;3.10;1.00
9201;DHT22;4635;48.686;9.008;2023-04-03T20:15:46;3.00;1.00
9201;DHT22;4635;48.686;9.008;2023-04-03T20:18:26;3.00;1.00
9201;DHT22;4635;48.686;9.008;2023-04-03T20:21:00;2.90;1.00
9201;DHT22;4635;48.686;9.008;2023-04-03T20:23:31;3.00;1.00
9201;DHT22;4635;48.686;9.008;2023-04-03T20:26:18;3.00;1.00
9201;DHT22;4635;48.686;9.008;2023-04-03T20:28:57;2.90;1.00
9201;DHT22;4635;48.686;9.008;2023-04-03T20:31:32;2.80;1.00
9201;DHT22;4635;48.686;9.008;2023-04-03T20:34:14;2.80;1.00
9201;DHT22;4635;48.686;9.008;2023-04-03T20:36:47;2.70;1.00
9201;DHT22;4635;48.686;9.008;2023-04-03T20:39:18;2.70;1.00
9201;DHT22;4635;48.686;9.008;2023-04-03T20:41:56;2.60;1.00
9201;DHT22;4635;48.686;9.008;2023-04-03T20:44:33;2.30;1.00
9201;DHT22;4635;48.686;9.008;2023-04-03T20:47:32;2.50;1.00
9201;DHT22;4635;48.686;9.008;2023-04-03T20:50:13;2.50;1.00
9201;DHT22;4635;48.686;9.008;2023-04-03T20:52:56;2.40;1.00
9201;DHT22;4635;48.686;9.008;2023-04-03T20:55:32;2.30;1.00
9201;DHT22;4635;48.686;9.008;2023-04-03T20:58:13;2.20;1.00
9201;DHT22;4635;48.686;9.008;2023-04-03T21:00:45;2.20;1.00
9201;DHT22;4635;48.686;9.008;2023-04-03T21:03:37;2.20;1.00
9201;DHT22;4635;48.686;9.008;2023-04-03T21:21:32;1.60;1.00
9201;DHT22;4635;48.686;9.008;2023-04-03T21:24:13;1.90;1.00
9201;DHT22;4635;48.686;9.008;2023-04-03T21:26:47;1.80;1.00
9201;DHT22;4635;48.686;9.008;2023-04-03T21:29:30;1.70;1.00
9201;DHT22;4635;48.686;9.008;2023-04-03T21:32:05;1.70;1.00
9201;DHT22;4635;48.686;9.008;2023-04-03T21:34:40;1.60;1.00
9201;DHT22;4635;48.686;9.008;2023-04-03T21:37:22;1.50;1.00
9201;DHT22;4635;48.686;9.008;2023-04-03T21:39:55;1.50;1.00
9201;DHT22;4635;48.686;9.008;2023-04-03T21:42:26;1.50;1.00
9201;DHT22;4635;48.686;9.008;2023-04-03T21:44:59;1.50;1.00
9201;DHT22;4635;48.686;9.008;2023-04-03T21:47:41;1.40;1.00
9201;DHT22;4635;48.686;9.008;2023-04-03T21:50:13;1.30;1.00
9201;DHT22;4635;48.686;9.008;2023-04-03T21:55:40;1.20;1.00
9201;DHT22;4635;48.686;9.008;2023-04-03T21:58:15;1.20;1.00
9201;DHT22;4635;48.686;9.008;2023-04-03T22:01:07;1.20;1.00
9201;DHT22;4635;48.686;9.008;2023-04-03T22:03:50;1.20;1.00
9201;DHT22;4635;48.686;9.008;2023-04-03T22:06:25;1.60;1.00
9201;DHT22;4635;48.686;9.008;2023-04-03T22:09:28;0.80;1.00
9201;DHT22;4635;48.686;9.008;2023-04-03T22:12:07;1.10;1.00
9201;DHT22;4635;48.686;9.008;2023-04-03T22:14:49;1.00;1.00
9201;DHT22;4635;48.686;9.008;2023-04-03T22:17:23;1.00;1.00
9201;DHT22;4635;48.686;9.008;2023-04-03T22:20:05;0.90;1.00
9201;DHT22;4635;48.686;9.008;2023-04-03T22:22:34;0.90;1.00
9201;DHT22;4635;48.686;9.008;2023-04-03T22:25:03;0.90;1.00
9201;DHT22;4635;48.686;9.008;2023-04-03T22:27:47;1.80;1.00
9201;DHT22;4635;48.686;9.008;2023-04-03T22:30:24;0.80;1.00
9201;DHT22;4635;48.686;9.008;2023-04-03T22:33:02;0.80;1.00
9201;DHT22;4635;48.686;9.008;2023-04-03T22:35:36;0.80;1.00
9201;DHT22;4635;48.686;9.008;2023-04-03T22:38:15;0.70;1.00
9201;DHT22;4635;48.686;9.008;2023-04-03T22:40:58;0.70;1.00
9201;DHT22;4635;48.686;9.008;2023-04-03T22:49:28;0.60;1.00
9201;DHT22;4635;48.686;9.008;2023-04-03T22:51:59;0.50;1.00
9201;DHT22;4635;48.686;9.008;2023-04-03T22:54:43;0.50;1.00
9201;DHT22;4635;48.686;9.008;2023-04-03T22:57:16;0.50;1.00
9201;DHT22;4635;48.686;9.008;2023-04-03T22:59:45;0.50;1.00
9201;DHT22;4635;48.686;9.008;2023-04-03T23:02:27;0.40;1.00
9201;DHT22;4635;48.686;9.008;2023-04-03T23:05:01;0.40;1.00
9201;DHT22;4635;48.686;9.008;2023-04-03T23:07:32;0.30;1.00
9201;DHT22;4635;48.686;9.008;2023-04-03T23:10:13;0.30;1.00
9201;DHT22;4635;48.686;9.008;2023-04-03T23:12:46;0.30;1.00
9201;DHT22;4635;48.686;9.008;2023-04-03T23:15:25;0.20;1.00
9201;DHT22;4635;48.686;9.008;2023-04-03T23:18:38;0.20;1.00
9201;DHT22;4635;48.686;9.008;2023-04-03T23:21:23;0.20;1.00
9201;DHT22;4635;48.686;9.008;2023-04-03T23:23:52;0.10;1.00
9201;DHT22;4635;48.686;9.008;2023-04-03T23:26:35;0.20;1.00
9201;DHT22;4635;48.686;9.008;2023-04-03T23:29:13;0.10;1.00
9201;DHT22;4635;48.686;9.008;2023-04-03T23:31:48;0.10;1.00
9201;DHT22;4635;48.686;9.008;2023-04-03T23:34:37;0.00;1.00
9201;DHT22;4635;48.686;9.008;2023-04-03T23:37:10;0.00;1.00
9201;DHT22;4635;48.686;9.008;2023-04-03T23:39:42;0.00;1.00
9201;DHT22;4635;48.686;9.008;2023-04-03T23:42:14;-0.10;1.00
9201;DHT22;4635;48.686;9.008;2023-04-03T23:44:46;-0.10;1.00
9201;DHT22;4635;48.686;9.008;2023-04-03T23:47:17;0.10;8.50
9201;DHT22;4635;48.686;9.008;2023-04-03T23:50:03;-0.10;23.10
9201;DHT22;4635;48.686;9.008;2023-04-03T23:52:35;-0.20;28.70
9201;DHT22;4635;48.686;9.008;2023-04-03T23:55:05;-0.20;53.60
9201;DHT22;4635;48.686;9.008;2023-04-03T23:57:40;-0.20;57.70
